createdAt,value
2019-02-05T00:01:38.121Z,197.47
2019-02-05T00:06:39.610Z,186.03
2019-02-05T00:11:41.156Z,171.93
2019-02-05T00:16:42.565Z,177.80
2019-02-05T00:21:43.997Z,184.60
2019-02-05T00:26:45.522Z,167.73
2019-02-05T00:31:47.086Z,187.30
2019-02-05T00:36:48.515Z,187.87
2019-02-05T00:41:49.968Z,190.70
2019-02-05T00:46:51.392Z,276.60
2019-02-05T00:51:53.961Z,206.97
2019-02-05T00:56:55.391Z,199.63
2019-02-05T01:01:56.824Z,233.10
2019-02-05T01:06:58.496Z,190.83
2019-02-05T01:12:00.429Z,193.40
2019-02-05T01:17:02.065Z,192.63
2019-02-05T01:22:04.946Z,200.10
2019-02-05T01:27:06.474Z,216.37
2019-02-05T01:32:08.096Z,207.90
2019-02-05T01:37:09.521Z,237.53
2019-02-05T01:42:11.070Z,256.80
2019-02-05T01:47:12.689Z,204.30
2019-02-05T01:52:15.248Z,185.20
2019-02-05T01:57:16.721Z,192.60
2019-02-05T02:02:18.353Z,172.77
2019-02-05T02:07:19.973Z,188.67
2019-02-05T02:12:21.801Z,303.83
2019-02-05T02:17:23.724Z,183.80
2019-02-05T02:22:25.152Z,169.80
2019-02-05T02:27:26.782Z,158.77
2019-02-05T02:32:28.267Z,157.67
2019-02-05T02:37:29.704Z,150.70
2019-02-05T02:42:31.136Z,290.13
2019-02-05T02:47:32.565Z,176.77
2019-02-05T02:52:34.147Z,191.30
2019-02-05T02:57:36.337Z,181.90
2019-02-05T03:02:37.782Z,162.37
2019-02-05T03:07:39.393Z,182.63
2019-02-05T03:12:41.122Z,195.70
2019-02-05T03:17:42.692Z,161.37
2019-02-05T03:22:45.266Z,187.57
2019-02-05T03:27:47.618Z,255.93
2019-02-05T03:32:49.748Z,275.17
2019-02-05T03:37:51.371Z,173.17
2019-02-05T03:42:53.291Z,253.43
2019-02-05T03:48:01.248Z,179.73
2019-02-05T03:53:17.175Z,240.33
2019-02-05T03:58:27.614Z,259.53
2019-02-05T04:03:37.491Z,333.63
2019-02-05T04:08:50.771Z,243.40
2019-02-05T04:14:18.962Z,164.90
2019-02-05T04:19:44.364Z,166.10
2019-02-05T04:25:14.436Z,202.30
2019-02-05T04:30:39.659Z,156.37
2019-02-05T04:36:08.157Z,201.20
2019-02-05T04:41:23.978Z,188.17
2019-02-05T04:47:04.180Z,198.90
2019-02-05T04:52:32.331Z,178.33
2019-02-05T04:58:10.149Z,166.90
2019-02-05T05:03:48.796Z,178.10
2019-02-05T05:09:20.225Z,215.83
2019-02-05T05:14:21.641Z,423.03
2019-02-05T05:19:23.268Z,225.90
2019-02-05T05:24:25.301Z,215.70
2019-02-05T05:29:27.501Z,197.57
2019-02-05T05:34:29.229Z,442.37
2019-02-05T05:39:30.664Z,321.57
2019-02-05T05:44:32.108Z,330.73
2019-02-05T05:49:34.127Z,338.50
2019-02-05T05:54:35.690Z,321.27
2019-02-05T05:59:37.224Z,489.07
2019-02-05T06:04:39.149Z,414.60
2019-02-05T06:09:41.269Z,293.70
2019-02-05T06:14:42.699Z,274.73
2019-02-05T06:19:44.135Z,349.60
2019-02-05T06:24:45.709Z,321.40
2019-02-05T06:29:47.326Z,284.70
2019-02-05T06:34:48.793Z,231.53
2019-02-05T06:39:50.213Z,296.50
2019-02-05T06:44:51.746Z,436.47
2019-02-05T06:49:53.181Z,362.30
2019-02-05T06:54:54.651Z,330.67
2019-02-05T06:59:56.078Z,280.07
2019-02-05T07:04:57.539Z,338.47
2019-02-05T07:09:59.066Z,243.87
2019-02-05T07:15:00.889Z,268.93
2019-02-05T07:20:09.707Z,294.37
2019-02-05T07:25:18.232Z,248.57
2019-02-05T07:30:26.066Z,222.50
2019-02-05T07:35:27.490Z,204.77
2019-02-05T07:40:29.322Z,195.30
2019-02-05T07:45:30.859Z,204.47
2019-02-05T07:50:32.293Z,178.83
2019-02-05T07:55:33.870Z,154.00
2019-02-05T08:00:35.402Z,129.93
2019-02-05T08:05:36.880Z,145.03
2019-02-05T08:10:38.515Z,134.67
2019-02-05T08:15:40.287Z,196.70
2019-02-05T08:20:41.866Z,165.70
2019-02-05T08:25:43.396Z,160.50
2019-02-05T08:30:47.631Z,157.80
2019-02-05T08:35:49.122Z,155.10
2019-02-05T08:40:50.552Z,113.87
2019-02-05T08:45:56.839Z,139.83
2019-02-05T08:50:55.668Z,103.83
2019-02-05T08:55:57.231Z,95.40
2019-02-05T09:00:58.768Z,89.70
2019-02-05T09:06:00.350Z,100.63
2019-02-05T09:11:02.479Z,106.97
2019-02-05T09:16:04.223Z,105.60
2019-02-05T09:21:05.745Z,110.23
2019-02-05T09:26:07.692Z,110.97
2019-02-05T09:31:09.116Z,120.60
2019-02-05T09:36:10.721Z,164.73
2019-02-05T09:41:12.640Z,176.60
2019-02-05T09:46:14.702Z,248.73
2019-02-05T09:51:16.146Z,261.50
2019-02-05T09:56:17.687Z,208.27
2019-02-05T10:01:19.230Z,219.33
2019-02-05T10:06:20.804Z,234.73
2019-02-05T10:11:22.386Z,222.80
2019-02-05T10:16:23.869Z,211.03
2019-02-05T10:21:25.504Z,205.83
2019-02-05T10:26:27.035Z,219.73
2019-02-05T10:31:29.573Z,232.60
2019-02-05T10:36:32.109Z,212.77
2019-02-05T10:41:33.687Z,191.83
2019-02-05T10:46:35.456Z,183.87
2019-02-05T10:51:37.089Z,176.87
2019-02-05T10:56:38.521Z,168.50
2019-02-05T11:01:40.090Z,241.30
2019-02-05T11:06:41.632Z,228.97
2019-02-05T11:11:43.114Z,226.83
2019-02-05T11:16:44.642Z,243.30
2019-02-05T11:21:46.127Z,249.93
2019-02-05T11:26:47.660Z,216.23
2019-02-05T11:31:49.134Z,205.70
2019-02-05T11:36:50.565Z,202.53
2019-02-05T11:41:52.137Z,190.73
2019-02-05T11:46:53.827Z,217.53
2019-02-05T11:51:56.814Z,197.53
2019-02-05T11:56:58.464Z,194.67
2019-02-05T12:02:00.001Z,180.57
2019-02-05T12:07:02.276Z,203.10
2019-02-05T12:12:03.919Z,206.73
2019-02-05T12:17:05.466Z,216.93
2019-02-05T12:22:07.722Z,207.50
2019-02-05T12:27:09.151Z,186.97
2019-02-05T12:32:10.789Z,194.67
2019-02-05T12:37:12.686Z,200.13
2019-02-05T12:42:14.155Z,189.80
2019-02-05T12:47:15.825Z,202.03
2019-02-05T12:52:17.372Z,218.30
2019-02-05T12:57:18.807Z,216.57
2019-02-05T13:02:20.258Z,223.47
2019-02-05T13:07:21.843Z,203.80
2019-02-05T13:12:23.387Z,201.80
2019-02-05T13:17:25.596Z,156.97
2019-02-05T13:22:27.448Z,141.57
2019-02-05T13:27:28.901Z,140.43
2019-02-05T13:32:30.508Z,132.80
2019-02-05T13:37:33.890Z,149.33
2019-02-05T13:42:35.414Z,152.07
2019-02-05T13:47:37.149Z,180.13
2019-02-05T13:52:38.700Z,168.83
2019-02-05T13:57:40.594Z,173.53
2019-02-05T14:02:42.317Z,164.10
2019-02-05T14:07:43.817Z,170.27
2019-02-05T14:12:45.445Z,166.80
2019-02-05T14:17:47.386Z,171.23
2019-02-05T14:22:49.035Z,184.77
2019-02-05T14:27:50.682Z,169.40
2019-02-05T14:32:52.135Z,156.93
2019-02-05T14:37:54.538Z,174.23
2019-02-05T14:42:56.266Z,164.13
2019-02-05T14:47:57.765Z,146.13
2019-02-05T14:52:59.804Z,159.27
2019-02-05T14:58:01.591Z,178.43
2019-02-05T15:03:07.314Z,172.67
2019-02-05T15:08:10.359Z,170.70
2019-02-05T15:13:12.155Z,165.07
2019-02-05T15:18:14.192Z,185.40
2019-02-05T15:23:16.014Z,197.73
2019-02-05T15:28:17.927Z,186.07
2019-02-05T15:33:21.805Z,190.07
2019-02-05T15:38:23.337Z,186.13
2019-02-05T15:43:25.824Z,207.50
2019-02-05T15:48:27.324Z,208.03
2019-02-05T15:53:28.859Z,213.73
2019-02-05T15:58:30.532Z,214.63
2019-02-05T16:03:32.167Z,194.87
2019-02-05T16:08:35.118Z,178.97
2019-02-05T16:13:36.750Z,192.00
2019-02-05T16:18:38.180Z,228.37
2019-02-05T16:23:39.748Z,240.47
2019-02-05T16:28:41.199Z,234.57
2019-02-05T16:33:42.728Z,230.60
2019-02-05T16:38:44.182Z,221.63
2019-02-05T16:43:46.823Z,243.97
2019-02-05T16:48:48.395Z,274.03
2019-02-05T16:53:49.861Z,272.70
2019-02-05T16:58:51.356Z,260.80
2019-02-05T17:03:54.216Z,268.63
2019-02-05T17:08:57.686Z,268.23
2019-02-05T17:13:59.331Z,271.20
2019-02-05T17:19:00.835Z,291.10
2019-02-05T17:24:03.001Z,298.43
2019-02-05T17:29:04.849Z,224.13
2019-02-05T17:34:06.487Z,229.33
2019-02-05T17:39:10.559Z,240.67
2019-02-05T17:44:12.709Z,229.73
2019-02-05T17:49:15.110Z,222.97
2019-02-05T17:54:17.275Z,215.67
2019-02-05T17:59:20.308Z,213.13
2019-02-05T18:04:24.009Z,219.53
2019-02-05T18:09:25.491Z,249.43
2019-02-05T18:14:26.966Z,233.33
2019-02-05T18:19:28.461Z,249.00
2019-02-05T18:24:30.010Z,607.57
2019-02-05T18:29:31.584Z,363.97
2019-02-05T18:34:33.230Z,250.77
2019-02-05T18:39:34.713Z,250.13
2019-02-05T18:44:36.351Z,277.73
2019-02-05T18:49:37.852Z,416.93
2019-02-05T18:54:39.344Z,249.67
2019-02-05T18:59:40.791Z,237.40
2019-02-05T19:04:42.261Z,245.27
2019-02-05T19:09:44.300Z,223.40
2019-02-05T19:14:45.875Z,199.10
2019-02-05T19:19:47.419Z,207.50
2019-02-05T19:24:50.806Z,211.67
2019-02-05T19:29:52.512Z,200.80
2019-02-05T19:34:57.049Z,190.20
2019-02-05T19:39:58.858Z,190.07
2019-02-05T19:45:02.256Z,201.60
2019-02-05T19:50:07.444Z,176.73
2019-02-05T19:55:09.900Z,182.37
2019-02-05T20:00:17.887Z,162.37
2019-02-05T20:05:19.414Z,202.37
2019-02-05T20:10:21.653Z,190.70
2019-02-05T20:15:23.536Z,200.60
2019-02-05T20:20:25.016Z,203.37
2019-02-05T20:25:26.870Z,238.83
2019-02-05T20:30:29.688Z,213.30
2019-02-05T20:35:31.230Z,181.80
2019-02-05T20:40:32.868Z,174.17
2019-02-05T20:45:34.368Z,176.57
2019-02-05T20:50:35.900Z,173.60
2019-02-05T20:55:37.424Z,170.30
2019-02-05T21:00:38.979Z,143.83
2019-02-05T21:05:40.558Z,174.40
2019-02-05T21:10:41.993Z,161.23
2019-02-05T21:15:43.588Z,145.87
2019-02-05T21:20:45.118Z,138.27
2019-02-05T21:25:46.588Z,158.10
2019-02-05T21:30:48.012Z,160.10
2019-02-05T21:35:49.448Z,144.70
2019-02-05T21:40:50.886Z,135.50
2019-02-05T21:45:52.462Z,151.43
2019-02-05T21:50:54.324Z,157.23
2019-02-05T21:55:55.803Z,155.07
2019-02-05T22:00:57.246Z,162.20
2019-02-05T22:05:58.987Z,144.17
2019-02-05T22:11:00.407Z,122.90
2019-02-05T22:16:01.873Z,114.10
2019-02-05T22:21:03.805Z,118.40
2019-02-05T22:26:05.681Z,120.50
2019-02-05T22:31:08.416Z,111.53
2019-02-05T22:36:09.942Z,124.70
2019-02-05T22:41:11.387Z,115.10
2019-02-05T22:46:13.059Z,117.03
2019-02-05T22:51:14.872Z,111.50
2019-02-05T22:56:16.427Z,108.37
2019-02-05T23:01:26.957Z,99.73
2019-02-05T23:06:40.330Z,116.20
2019-02-05T23:12:04.832Z,115.20
2019-02-05T23:17:06.765Z,138.77
2019-02-05T23:22:08.751Z,128.73
2019-02-05T23:27:10.200Z,131.70
2019-02-05T23:32:11.945Z,127.73
2019-02-05T23:37:13.472Z,110.93
2019-02-05T23:42:15.077Z,110.43
2019-02-05T23:47:16.532Z,97.27
2019-02-05T23:52:18.092Z,105.97
2019-02-05T23:57:19.521Z,101.27
